sensor_id;sensor_type;location;lat;lon;timestamp;pressure;altitude;pressure_sealevel;temperature;humidity
55187;BME280;55457;52.002;5.464;2024-03-23T00:55:59;100868.66;;;20.44;53.09
55187;BME280;55457;52.002;5.464;2024-03-23T00:58:25;100871.09;;;20.45;52.97
55187;BME280;55457;52.002;5.464;2024-03-23T01:00:50;100861.09;;;20.46;52.81
55187;BME280;55457;52.002;5.464;2024-03-23T01:03:15;100865.50;;;20.47;53.00
55187;BME280;55457;52.002;5.464;2024-03-23T01:05:41;100865.69;;;20.45;53.18
55187;BME280;55457;52.002;5.464;2024-03-23T01:08:06;100861.94;;;20.46;52.87
55187;BME280;55457;52.002;5.464;2024-03-23T01:10:31;100857.56;;;20.45;52.71
55187;BME280;55457;52.002;5.464;2024-03-23T01:12:57;100855.66;;;20.46;52.91
55187;BME280;55457;52.002;5.464;2024-03-23T01:15:22;100850.25;;;20.46;53.00
55187;BME280;55457;52.002;5.464;2024-03-23T01:17:47;100849.44;;;20.45;52.92
55187;BME280;55457;52.002;5.464;2024-03-23T01:20:13;100842.13;;;20.46;53.10
55187;BME280;55457;52.002;5.464;2024-03-23T01:22:38;100845.69;;;20.46;52.93
55187;BME280;55457;52.002;5.464;2024-03-23T01:25:03;100834.00;;;20.46;52.96
55187;BME280;55457;52.002;5.464;2024-03-23T01:27:29;100831.56;;;20.44;53.18
55187;BME280;55457;52.002;5.464;2024-03-23T01:29:54;100829.69;;;20.45;52.94
55187;BME280;55457;52.002;5.464;2024-03-23T01:32:19;100822.38;;;20.45;53.20
55187;BME280;55457;52.002;5.464;2024-03-23T01:34:45;100815.81;;;20.41;53.12
55187;BME280;55457;52.002;5.464;2024-03-23T01:37:10;100816.97;;;20.45;53.00
55187;BME280;55457;52.002;5.464;2024-03-23T01:39:36;100811.53;;;20.45;52.97
55187;BME280;55457;52.002;5.464;2024-03-23T01:42:01;100816.97;;;20.45;52.95
55187;BME280;55457;52.002;5.464;2024-03-23T01:44:26;100805.56;;;20.43;53.07
55187;BME280;55457;52.002;5.464;2024-03-23T01:46:52;100810.72;;;20.45;53.34
55187;BME280;55457;52.002;5.464;2024-03-23T01:49:17;100812.38;;;20.46;53.02
55187;BME280;55457;52.002;5.464;2024-03-23T01:51:43;100811.53;;;20.45;53.04
55187;BME280;55457;52.002;5.464;2024-03-23T01:54:09;100803.69;;;20.44;53.20
55187;BME280;55457;52.002;5.464;2024-03-23T01:56:34;100806.94;;;20.46;53.02
55187;BME280;55457;52.002;5.464;2024-03-23T01:59:03;100802.59;;;20.45;53.23
55187;BME280;55457;52.002;5.464;2024-03-23T02:01:29;100807.78;;;20.46;53.21
55187;BME280;55457;52.002;5.464;2024-03-23T02:03:55;100803.41;;;20.45;52.73
55187;BME280;55457;52.002;5.464;2024-03-23T02:06:20;100797.44;;;20.43;53.03
55187;BME280;55457;52.002;5.464;2024-03-23T02:08:45;100799.69;;;20.46;53.31
55187;BME280;55457;52.002;5.464;2024-03-23T02:11:11;100796.38;;;20.44;53.24
55187;BME280;55457;52.002;5.464;2024-03-23T02:13:36;100799.91;;;20.45;53.29
55187;BME280;55457;52.002;5.464;2024-03-23T02:16:01;100804.50;;;20.44;53.25
55187;BME280;55457;52.002;5.464;2024-03-23T02:18:27;100799.91;;;20.45;53.10
55187;BME280;55457;52.002;5.464;2024-03-23T02:20:52;100795.31;;;20.45;53.08
55187;BME280;55457;52.002;5.464;2024-03-23T02:23:18;100798.25;;;20.44;53.33
55187;BME280;55457;52.002;5.464;2024-03-23T02:25:44;100796.38;;;20.44;53.29
55187;BME280;55457;52.002;5.464;2024-03-23T02:28:09;100785.53;;;20.44;53.14
55187;BME280;55457;52.002;5.464;2024-03-23T02:30:35;100788.25;;;20.44;53.25
55187;BME280;55457;52.002;5.464;2024-03-23T02:33:00;100789.31;;;20.43;53.04
55187;BME280;55457;52.002;5.464;2024-03-23T02:35:25;100780.13;;;20.44;53.23
55187;BME280;55457;52.002;5.464;2024-03-23T02:37:51;100784.97;;;20.42;53.04
55187;BME280;55457;52.002;5.464;2024-03-23T02:40:17;100785.53;;;20.44;53.14
55187;BME280;55457;52.002;5.464;2024-03-23T02:42:42;100781.19;;;20.43;53.21
55187;BME280;55457;52.002;5.464;2024-03-23T02:45:08;100783.91;;;20.43;53.18
55187;BME280;55457;52.002;5.464;2024-03-23T02:47:33;100781.19;;;20.43;53.16
55187;BME280;55457;52.002;5.464;2024-03-23T02:49:58;100774.63;;;20.39;53.18
55187;BME280;55457;52.002;5.464;2024-03-23T02:52:24;100778.75;;;20.42;53.05
55187;BME280;55457;52.002;5.464;2024-03-23T02:54:49;100786.63;;;20.43;53.05
55187;BME280;55457;52.002;5.464;2024-03-23T02:57:14;100780.38;;;20.43;53.08
55187;BME280;55457;52.002;5.464;2024-03-23T02:59:40;100774.63;;;20.39;53.19
55187;BME280;55457;52.002;5.464;2024-03-23T03:02:05;100769.56;;;20.43;53.41
55187;BME280;55457;52.002;5.464;2024-03-23T03:04:31;100779.56;;;20.42;53.20
55187;BME280;55457;52.002;5.464;2024-03-23T03:06:57;100782.28;;;20.42;53.18
55187;BME280;55457;52.002;5.464;2024-03-23T03:09:22;100778.75;;;20.42;53.01
55187;BME280;55457;52.002;5.464;2024-03-23T03:11:48;100778.75;;;20.42;53.17
55187;BME280;55457;52.002;5.464;2024-03-23T03:14:13;100780.63;;;20.41;53.21
55187;BME280;55457;52.002;5.464;2024-03-23T03:16:38;100778.75;;;20.42;52.97
55187;BME280;55457;52.002;5.464;2024-03-23T03:19:04;100783.34;;;20.41;53.37
55187;BME280;55457;52.002;5.464;2024-03-23T03:21:29;100777.94;;;20.41;52.94
55187;BME280;55457;52.002;5.464;2024-03-23T03:23:54;100778.75;;;20.42;53.11
55187;BME280;55457;52.002;5.464;2024-03-23T03:26:22;100767.91;;;20.42;52.96
55187;BME280;55457;52.002;5.464;2024-03-23T03:28:47;100777.94;;;20.41;53.21
55187;BME280;55457;52.002;5.464;2024-03-23T03:31:15;100774.16;;;20.42;53.22
55187;BME280;55457;52.002;5.464;2024-03-23T03:33:40;100761.69;;;20.41;53.02
55187;BME280;55457;52.002;5.464;2024-03-23T03:36:06;100767.09;;;20.41;53.21
55187;BME280;55457;52.002;5.464;2024-03-23T03:38:31;100763.56;;;20.41;53.23
55187;BME280;55457;52.002;5.464;2024-03-23T03:40:56;100760.03;;;20.40;53.27
55187;BME280;55457;52.002;5.464;2024-03-23T03:43:24;100752.97;;;20.39;52.77
55187;BME280;55457;52.002;5.464;2024-03-23T03:45:53;100755.69;;;20.39;53.07
55187;BME280;55457;52.002;5.464;2024-03-23T03:48:19;100754.59;;;20.40;53.19
55187;BME280;55457;52.002;5.464;2024-03-23T03:50:44;100750.28;;;20.39;53.03
55187;BME280;55457;52.002;5.464;2024-03-23T03:53:09;100752.97;;;20.39;53.00
55187;BME280;55457;52.002;5.464;2024-03-23T03:55:34;100747.56;;;20.39;53.19
55187;BME280;55457;52.002;5.464;2024-03-23T03:58:00;100747.31;;;20.41;52.95
55187;BME280;55457;52.002;5.464;2024-03-23T04:00:25;100745.94;;;20.38;53.04
55187;BME280;55457;52.002;5.464;2024-03-23T04:02:50;100744.84;;;20.39;53.19
55187;BME280;55457;52.002;5.464;2024-03-23T04:05:16;100740.50;;;20.38;53.32
55187;BME280;55457;52.002;5.464;2024-03-23T04:07:42;100748.63;;;20.38;53.03
55187;BME280;55457;52.002;5.464;2024-03-23T04:10:07;100736.41;;;20.36;52.93
55187;BME280;55457;52.002;5.464;2024-03-23T04:12:36;100740.50;;;20.38;52.77
55187;BME280;55457;52.002;5.464;2024-03-23T04:15:01;100735.09;;;20.38;53.19
55187;BME280;55457;52.002;5.464;2024-03-23T04:17:29;100726.41;;;20.36;52.82
55187;BME280;55457;52.002;5.464;2024-03-23T04:19:57;100728.53;;;20.34;53.29
55187;BME280;55457;52.002;5.464;2024-03-23T04:22:23;100734.28;;;20.38;53.13
55187;BME280;55457;52.002;5.464;2024-03-23T04:24:49;100730.75;;;20.37;52.84
55187;BME280;55457;52.002;5.464;2024-03-23T04:27:15;100732.41;;;20.38;53.12
55187;BME280;55457;52.002;5.464;2024-03-23T04:29:40;100726.41;;;20.36;52.82
55187;BME280;55457;52.002;5.464;2024-03-23T04:32:06;100738.06;;;20.37;53.07
55187;BME280;55457;52.002;5.464;2024-03-23T04:34:31;100727.25;;;20.37;53.25
55187;BME280;55457;52.002;5.464;2024-03-23T04:36:58;100726.41;;;20.36;53.25
55187;BME280;55457;52.002;5.464;2024-03-23T04:39:23;100726.41;;;20.36;53.30
55187;BME280;55457;52.002;5.464;2024-03-23T04:41:49;100731.84;;;20.36;52.93
55187;BME280;55457;52.002;5.464;2024-03-23T04:44:15;100731.84;;;20.36;52.89
55187;BME280;55457;52.002;5.464;2024-03-23T04:46:40;100732.66;;;20.37;53.29
55187;BME280;55457;52.002;5.464;2024-03-23T04:49:05;100727.47;;;20.35;53.11
55187;BME280;55457;52.002;5.464;2024-03-23T04:51:38;100726.41;;;20.36;52.96
55187;BME280;55457;52.002;5.464;2024-03-23T04:54:03;100728.28;;;20.36;53.15
55187;BME280;55457;52.002;5.464;2024-03-23T04:56:29;100724.75;;;20.35;53.15
55187;BME280;55457;52.002;5.464;2024-03-23T04:58:55;100724.75;;;20.35;53.11
55187;BME280;55457;52.002;5.464;2024-03-23T05:01:20;100730.16;;;20.35;53.10
55187;BME280;55457;52.002;5.464;2024-03-23T05:03:45;100722.03;;;20.35;52.91
55187;BME280;55457;52.002;5.464;2024-03-23T05:06:10;100722.03;;;20.35;52.70
55187;BME280;55457;52.002;5.464;2024-03-23T05:08:36;100725.00;;;20.33;53.05
55187;BME280;55457;52.002;5.464;2024-03-23T05:11:01;100723.13;;;20.34;53.03
55187;BME280;55457;52.002;5.464;2024-03-23T05:13:26;100726.66;;;20.34;53.10
55187;BME280;55457;52.002;5.464;2024-03-23T05:15:53;100723.13;;;20.34;52.86
55187;BME280;55457;52.002;5.464;2024-03-23T05:18:18;100731.25;;;20.34;52.80
55187;BME280;55457;52.002;5.464;2024-03-23T05:20:44;100727.72;;;20.33;52.76
55187;BME280;55457;52.002;5.464;2024-03-23T05:23:09;100730.41;;;20.33;52.75
55187;BME280;55457;52.002;5.464;2024-03-23T05:25:34;100732.31;;;20.33;52.63
55187;BME280;55457;52.002;5.464;2024-03-23T05:28:00;100731.50;;;20.32;52.95
55187;BME280;55457;52.002;5.464;2024-03-23T05:30:25;100738.78;;;20.32;52.99
55187;BME280;55457;52.002;5.464;2024-03-23T05:32:50;100735.03;;;20.33;53.11
55187;BME280;55457;52.002;5.464;2024-03-23T05:35:15;100737.97;;;20.31;52.69
55187;BME280;55457;52.002;5.464;2024-03-23T05:37:41;100736.09;;;20.32;52.63
55187;BME280;55457;52.002;5.464;2024-03-23T05:40:06;100737.97;;;20.31;53.01
55187;BME280;55457;52.002;5.464;2024-03-23T05:42:33;100735.75;;;20.28;52.71
55187;BME280;55457;52.002;5.464;2024-03-23T05:44:58;100744.22;;;20.32;52.74
55187;BME280;55457;52.002;5.464;2024-03-23T05:47:24;100741.50;;;20.32;52.89
55187;BME280;55457;52.002;5.464;2024-03-23T05:49:49;100737.97;;;20.31;52.66
55187;BME280;55457;52.002;5.464;2024-03-23T05:52:16;100732.56;;;20.31;52.08
55187;BME280;55457;52.002;5.464;2024-03-23T05:54:42;100721.97;;;20.30;52.69
55187;BME280;55457;52.002;5.464;2024-03-23T05:57:08;100726.34;;;20.31;52.72
55187;BME280;55457;52.002;5.464;2024-03-23T05:59:34;100723.63;;;20.31;52.63
55187;BME280;55457;52.002;5.464;2024-03-23T06:01:59;100724.44;;;20.31;52.52
55187;BME280;55457;52.002;5.464;2024-03-23T06:04:24;100730.09;;;20.30;52.60
55187;BME280;55457;52.002;5.464;2024-03-23T06:06:51;100724.38;;;20.26;52.86
55187;BME280;55457;52.002;5.464;2024-03-23T06:09:17;100723.28;;;20.27;52.67
55187;BME280;55457;52.002;5.464;2024-03-23T06:11:42;100731.75;;;20.31;52.75
55187;BME280;55457;52.002;5.464;2024-03-23T06:14:08;100735.28;;;20.31;52.60
55187;BME280;55457;52.002;5.464;2024-03-23T06:16:33;100732.78;;;20.30;52.44
55187;BME280;55457;52.002;5.464;2024-03-23T06:18:58;100728.19;;;20.30;52.64
55187;BME280;55457;52.002;5.464;2024-03-23T06:21:24;100728.19;;;20.30;52.41
55187;BME280;55457;52.002;5.464;2024-03-23T06:23:53;100729.03;;;20.31;52.51
55187;BME280;55457;52.002;5.464;2024-03-23T06:26:19;100721.16;;;20.29;52.21
55187;BME280;55457;52.002;5.464;2024-03-23T06:28:44;100724.66;;;20.30;52.50
55187;BME280;55457;52.002;5.464;2024-03-23T06:31:10;100721.97;;;20.30;52.62
55187;BME280;55457;52.002;5.464;2024-03-23T06:33:35;100720.91;;;20.31;52.27
55187;BME280;55457;52.002;5.464;2024-03-23T06:36:00;100722.78;;;20.30;52.47
55187;BME280;55457;52.002;5.464;2024-03-23T06:38:27;100719.84;;;20.32;52.52
55187;BME280;55457;52.002;5.464;2024-03-23T06:40:52;100716.56;;;20.30;52.98
55187;BME280;55457;52.002;5.464;2024-03-23T06:43:18;100706.78;;;20.29;54.03
55187;BME280;55457;52.002;5.464;2024-03-23T06:45:43;100710.66;;;20.33;55.22
55187;BME280;55457;52.002;5.464;2024-03-23T06:48:09;100707.41;;;20.31;54.58
55187;BME280;55457;52.002;5.464;2024-03-23T06:50:34;100716.88;;;20.33;54.51
55187;BME280;55457;52.002;5.464;2024-03-23T06:52:59;100719.84;;;20.32;54.45
55187;BME280;55457;52.002;5.464;2024-03-23T06:55:27;100719.84;;;20.32;54.59
55187;BME280;55457;52.002;5.464;2024-03-23T06:57:53;100719.84;;;20.32;54.71
55187;BME280;55457;52.002;5.464;2024-03-23T07:00:18;100719.25;;;20.30;54.69
55187;BME280;55457;52.002;5.464;2024-03-23T07:02:44;100721.97;;;20.30;54.62
55187;BME280;55457;52.002;5.464;2024-03-23T07:05:10;100722.78;;;20.30;54.52
55187;BME280;55457;52.002;5.464;2024-03-23T07:07:36;100721.75;;;20.31;54.81
55187;BME280;55457;52.002;5.464;2024-03-23T07:10:01;100725.25;;;20.32;54.82
55187;BME280;55457;52.002;5.464;2024-03-23T07:12:26;100724.44;;;20.31;54.52
55187;BME280;55457;52.002;5.464;2024-03-23T07:14:52;100718.22;;;20.31;54.05
55187;BME280;55457;52.002;5.464;2024-03-23T07:17:17;100722.56;;;20.32;53.82
55187;BME280;55457;52.002;5.464;2024-03-23T07:19:43;100730.69;;;20.32;53.67
55187;BME280;55457;52.002;5.464;2024-03-23T07:22:09;100725.25;;;20.32;53.65
55187;BME280;55457;52.002;5.464;2024-03-23T07:24:34;100724.44;;;20.31;53.66
55187;BME280;55457;52.002;5.464;2024-03-23T07:26:59;100731.50;;;20.32;53.64
55187;BME280;55457;52.002;5.464;2024-03-23T07:29:24;100723.13;;;20.34;53.40
55187;BME280;55457;52.002;5.464;2024-03-23T07:31:50;100728.53;;;20.34;53.67
55187;BME280;55457;52.002;5.464;2024-03-23T07:34:15;100719.03;;;20.31;53.20
55187;BME280;55457;52.002;5.464;2024-03-23T07:36:41;100731.00;;;20.36;53.55
55187;BME280;55457;52.002;5.464;2024-03-23T07:39:06;100729.34;;;20.34;53.35
55187;BME280;55457;52.002;5.464;2024-03-23T07:41:33;100733.47;;;20.37;53.21
55187;BME280;55457;52.002;5.464;2024-03-23T07:43:58;100726.97;;;20.38;53.17
55187;BME280;55457;52.002;5.464;2024-03-23T07:46:23;100726.41;;;20.36;53.06
55187;BME280;55457;52.002;5.464;2024-03-23T07:48:50;100722.63;;;20.37;53.12
55187;BME280;55457;52.002;5.464;2024-03-23T07:51:17;100722.63;;;20.37;52.86
55187;BME280;55457;52.002;5.464;2024-03-23T07:53:44;100728.63;;;20.39;53.03
55187;BME280;55457;52.002;5.464;2024-03-23T07:56:11;100728.63;;;20.39;53.01
55187;BME280;55457;52.002;5.464;2024-03-23T07:58:37;100729.69;;;20.38;53.10
55187;BME280;55457;52.002;5.464;2024-03-23T08:01:09;100725.91;;;20.39;52.97
55187;BME280;55457;52.002;5.464;2024-03-23T08:03:36;100717.53;;;20.41;52.79
55187;BME280;55457;52.002;5.464;2024-03-23T08:06:10;100718.38;;;20.41;52.74
55187;BME280;55457;52.002;5.464;2024-03-23T08:08:35;100716.72;;;20.40;53.03
55187;BME280;55457;52.002;5.464;2024-03-23T08:11:01;100716.16;;;20.38;53.18
55187;BME280;55457;52.002;5.464;2024-03-23T08:13:27;100722.63;;;20.37;53.12
55187;BME280;55457;52.002;5.464;2024-03-23T08:15:59;100722.63;;;20.37;52.98
55187;BME280;55457;52.002;5.464;2024-03-23T08:18:25;100715.59;;;20.36;52.87
55187;BME280;55457;52.002;5.464;2024-03-23T08:21:04;100723.13;;;20.34;53.00
55187;BME280;55457;52.002;5.464;2024-03-23T08:23:34;100718.53;;;20.34;53.10
55187;BME280;55457;52.002;5.464;2024-03-23T08:26:02;100715.00;;;20.34;53.30
55187;BME280;55457;52.002;5.464;2024-03-23T08:28:28;100716.63;;;20.35;53.37
55187;BME280;55457;52.002;5.464;2024-03-23T08:30:54;100729.69;;;20.38;53.19
55187;BME280;55457;52.002;5.464;2024-03-23T08:33:19;100716.41;;;20.37;53.12
55187;BME280;55457;52.002;5.464;2024-03-23T08:35:55;100722.63;;;20.37;53.71
55187;BME280;55457;52.002;5.464;2024-03-23T08:38:21;100717.22;;;20.37;53.79
55187;BME280;55457;52.002;5.464;2024-03-23T08:40:46;100730.50;;;20.39;53.64
55187;BME280;55457;52.002;5.464;2024-03-23T08:43:11;100727.31;;;20.42;53.77
55187;BME280;55457;52.002;5.464;2024-03-23T08:45:36;100724.63;;;20.42;53.67
55187;BME280;55457;52.002;5.464;2024-03-23T08:48:02;100724.34;;;20.43;53.42
55187;BME280;55457;52.002;5.464;2024-03-23T08:50:27;100730.34;;;20.45;53.02
55187;BME280;55457;52.002;5.464;2024-03-23T08:52:52;100723.28;;;20.44;52.72
55187;BME280;55457;52.002;5.464;2024-03-23T08:55:18;100726.19;;;20.54;52.70
55187;BME280;55457;52.002;5.464;2024-03-23T08:57:43;100718.13;;;20.59;52.57
55187;BME280;55457;52.002;5.464;2024-03-23T09:00:09;100710.66;;;20.67;52.70
55187;BME280;55457;52.002;5.464;2024-03-23T09:02:36;100709.53;;;20.63;53.11
55187;BME280;55457;52.002;5.464;2024-03-23T09:05:02;100695.81;;;20.69;52.97
55187;BME280;55457;52.002;5.464;2024-03-23T09:07:30;100700.50;;;20.74;53.01
55187;BME280;55457;52.002;5.464;2024-03-23T09:09:56;100696.44;;;20.76;52.84
55187;BME280;55457;52.002;5.464;2024-03-23T09:12:21;100697.53;;;20.75;52.46
55187;BME280;55457;52.002;5.464;2024-03-23T09:14:46;100705.09;;;20.73;52.60
55187;BME280;55457;52.002;5.464;2024-03-23T09:17:11;100700.97;;;20.71;52.55
55187;BME280;55457;52.002;5.464;2024-03-23T09:19:37;100713.94;;;20.69;52.84
55187;BME280;55457;52.002;5.464;2024-03-23T09:22:02;100709.03;;;20.66;52.59
55187;BME280;55457;52.002;5.464;2024-03-23T09:24:27;100717.66;;;20.63;52.80
55187;BME280;55457;52.002;5.464;2024-03-23T09:26:53;100702.97;;;20.58;53.08
55187;BME280;55457;52.002;5.464;2024-03-23T09:29:18;100701.34;;;20.57;52.70
55187;BME280;55457;52.002;5.464;2024-03-23T09:31:44;100701.34;;;20.57;52.83
55187;BME280;55457;52.002;5.464;2024-03-23T09:34:10;100698.19;;;20.66;52.59
55187;BME280;55457;52.002;5.464;2024-03-23T09:36:35;100705.38;;;20.77;52.76
55187;BME280;55457;52.002;5.464;2024-03-23T09:39:00;100695.22;;;20.84;52.86
55187;BME280;55457;52.002;5.464;2024-03-23T09:41:26;100692.31;;;20.91;52.66
55187;BME280;55457;52.002;5.464;2024-03-23T09:43:54;100689.59;;;20.91;52.94
55187;BME280;55457;52.002;5.464;2024-03-23T09:46:19;100690.69;;;20.90;52.43
55187;BME280;55457;52.002;5.464;2024-03-23T09:48:46;100699.19;;;20.98;52.15
55187;BME280;55457;52.002;5.464;2024-03-23T09:51:12;100691.56;;;20.95;52.56
55187;BME280;55457;52.002;5.464;2024-03-23T09:53:37;100693.53;;;21.00;52.33
55187;BME280;55457;52.002;5.464;2024-03-23T09:56:03;100693.06;;;21.08;52.54
55187;BME280;55457;52.002;5.464;2024-03-23T09:58:29;100695.78;;;21.08;52.85
55187;BME280;55457;52.002;5.464;2024-03-23T10:00:54;100691.69;;;21.05;52.08
55187;BME280;55457;52.002;5.464;2024-03-23T10:03:20;100682.88;;;21.15;51.96
55187;BME280;55457;52.002;5.464;2024-03-23T10:05:45;100684.59;;;21.21;52.32
55187;BME280;55457;52.002;5.464;2024-03-23T10:10:39;100687.50;;;21.36;52.01
55187;BME280;55457;52.002;5.464;2024-03-23T10:13:04;100697.22;;;21.32;51.86
55187;BME280;55457;52.002;5.464;2024-03-23T10:15:29;100694.41;;;21.27;51.75
55187;BME280;55457;52.002;5.464;2024-03-23T10:17:55;100700.25;;;21.36;51.76
55187;BME280;55457;52.002;5.464;2024-03-23T10:20:22;100693.22;;;21.40;51.71
55187;BME280;55457;52.002;5.464;2024-03-23T10:22:51;100695.88;;;21.35;51.87
55187;BME280;55457;52.002;5.464;2024-03-23T10:25:17;100691.91;;;21.43;51.67
55187;BME280;55457;52.002;5.464;2024-03-23T10:27:43;100696.63;;;21.52;51.58
55187;BME280;55457;52.002;5.464;2024-03-23T10:30:13;100684.25;;;21.61;51.61
55187;BME280;55457;52.002;5.464;2024-03-23T10:32:42;100694.38;;;21.71;51.50
55187;BME280;55457;52.002;5.464;2024-03-23T10:35:17;100686.59;;;21.80;51.80
55187;BME280;55457;52.002;5.464;2024-03-23T10:37:47;100679.63;;;21.89;51.70
55187;BME280;55457;52.002;5.464;2024-03-23T10:40:16;100695.34;;;21.87;51.24
55187;BME280;55457;52.002;5.464;2024-03-23T10:42:42;100696.94;;;21.83;51.02
55187;BME280;55457;52.002;5.464;2024-03-23T10:45:08;100712.03;;;21.74;50.88
55187;BME280;55457;52.002;5.464;2024-03-23T10:47:37;100731.25;;;21.67;51.03
55187;BME280;55457;52.002;5.464;2024-03-23T10:50:04;100721.22;;;21.68;51.24
55187;BME280;55457;52.002;5.464;2024-03-23T10:52:31;100716.38;;;21.75;51.22
55187;BME280;55457;52.002;5.464;2024-03-23T10:54:56;100711.06;;;21.85;51.14
55187;BME280;55457;52.002;5.464;2024-03-23T10:58:00;100706.25;;;21.92;50.85
55187;BME280;55457;52.002;5.464;2024-03-23T11:00:26;100705.13;;;21.88;50.29
55187;BME280;55457;52.002;5.464;2024-03-23T11:02:52;100699.41;;;21.84;50.50
55187;BME280;55457;52.002;5.464;2024-03-23T11:07:53;100701.13;;;21.69;50.55
55187;BME280;55457;52.002;5.464;2024-03-23T11:10:29;100701.09;;;21.63;50.98
55187;BME280;55457;52.002;5.464;2024-03-23T11:12:58;100685.25;;;21.55;50.70
55187;BME280;55457;52.002;5.464;2024-03-23T11:15:23;100698.25;;;21.53;50.66
55187;BME280;55457;52.002;5.464;2024-03-23T11:18:05;100692.22;;;21.46;49.33
55187;BME280;55457;52.002;5.464;2024-03-23T11:20:33;100692.22;;;21.46;49.87
55187;BME280;55457;52.002;5.464;2024-03-23T11:22:59;100684.66;;;21.48;50.15
55187;BME280;55457;52.002;5.464;2024-03-23T11:25:28;100689.47;;;21.41;50.64
55187;BME280;55457;52.002;5.464;2024-03-23T11:27:55;100683.22;;;21.41;51.03
55187;BME280;55457;52.002;5.464;2024-03-23T11:30:25;100682.09;;;21.36;50.83
55187;BME280;55457;52.002;5.464;2024-03-23T11:32:53;100680.81;;;21.44;50.70
55187;BME280;55457;52.002;5.464;2024-03-23T11:35:29;100672.06;;;21.64;49.81
55187;BME280;55457;52.002;5.464;2024-03-23T11:38:17;100673.53;;;21.77;47.47
55187;BME280;55457;52.002;5.464;2024-03-23T11:40:49;100671.66;;;21.77;44.75
55187;BME280;55457;52.002;5.464;2024-03-23T11:43:17;100670.75;;;21.67;43.95
55187;BME280;55457;52.002;5.464;2024-03-23T11:48:15;100672.22;;;21.52;42.06
55187;BME280;55457;52.002;5.464;2024-03-23T11:50:44;100668.69;;;21.52;41.40
55187;BME280;55457;52.002;5.464;2024-03-23T11:53:14;100663.56;;;21.55;40.48
55187;BME280;55457;52.002;5.464;2024-03-23T11:55:43;100664.59;;;21.49;40.01
55187;BME280;55457;52.002;5.464;2024-03-23T11:58:10;100652.81;;;21.39;40.26
55187;BME280;55457;52.002;5.464;2024-03-23T12:00:36;100661.53;;;21.41;41.14
55187;BME280;55457;52.002;5.464;2024-03-23T12:03:02;100665.50;;;21.33;41.78
55187;BME280;55457;52.002;5.464;2024-03-23T12:05:28;100665.16;;;21.29;42.54
55187;BME280;55457;52.002;5.464;2024-03-23T12:07:54;100659.94;;;21.23;42.80
55187;BME280;55457;52.002;5.464;2024-03-23T12:10:20;100658.84;;;21.24;43.06
55187;BME280;55457;52.002;5.464;2024-03-23T12:12:45;100649.56;;;21.36;43.05
55187;BME280;55457;52.002;5.464;2024-03-23T12:15:10;100658.63;;;21.47;43.29
55187;BME280;55457;52.002;5.464;2024-03-23T12:17:38;100653.75;;;21.49;43.59
55187;BME280;55457;52.002;5.464;2024-03-23T12:20:04;100648.84;;;21.46;44.03
55187;BME280;55457;52.002;5.464;2024-03-23T12:22:29;100636.50;;;21.60;43.99
55187;BME280;55457;52.002;5.464;2024-03-23T12:24:55;100625.91;;;21.59;44.20
55187;BME280;55457;52.002;5.464;2024-03-23T12:27:20;100636.22;;;21.57;44.52
55187;BME280;55457;52.002;5.464;2024-03-23T12:29:46;100631.56;;;21.52;44.49
55187;BME280;55457;52.002;5.464;2024-03-23T12:32:13;100637.47;;;21.49;44.62
55187;BME280;55457;52.002;5.464;2024-03-23T12:34:38;100636.34;;;21.45;44.83
55187;BME280;55457;52.002;5.464;2024-03-23T12:37:04;100638.28;;;21.50;44.73
55187;BME280;55457;52.002;5.464;2024-03-23T12:39:31;100635.44;;;21.61;45.10
55187;BME280;55457;52.002;5.464;2024-03-23T12:41:56;100627.31;;;21.61;45.18
55187;BME280;55457;52.002;5.464;2024-03-23T12:44:22;100632.84;;;21.72;44.67
55187;BME280;55457;52.002;5.464;2024-03-23T12:46:47;100631.69;;;21.68;45.34
55187;BME280;55457;52.002;5.464;2024-03-23T12:49:12;100627.31;;;21.61;45.22
55187;BME280;55457;52.002;5.464;2024-03-23T12:51:37;100627.25;;;21.56;45.28
55187;BME280;55457;52.002;5.464;2024-03-23T12:54:03;100635.59;;;21.50;45.55
55187;BME280;55457;52.002;5.464;2024-03-23T12:56:29;100631.84;;;21.56;45.39
55187;BME280;55457;52.002;5.464;2024-03-23T12:58:55;100633.59;;;21.67;45.34
55187;BME280;55457;52.002;5.464;2024-03-23T13:01:25;100617.41;;;21.77;45.61
55187;BME280;55457;52.002;5.464;2024-03-23T13:03:50;100629.59;;;21.75;45.47
55187;BME280;55457;52.002;5.464;2024-03-23T13:06:16;100637.69;;;21.70;45.44
55187;BME280;55457;52.002;5.464;2024-03-23T13:08:47;100616.56;;;21.77;45.54
55187;BME280;55457;52.002;5.464;2024-03-23T13:11:13;100617.50;;;21.87;45.55
55187;BME280;55457;52.002;5.464;2024-03-23T13:13:39;100630.19;;;21.82;45.67
55187;BME280;55457;52.002;5.464;2024-03-23T13:16:05;100605.72;;;21.77;45.50
55187;BME280;55457;52.002;5.464;2024-03-23T13:18:31;100645.03;;;21.74;45.42
55187;BME280;55457;52.002;5.464;2024-03-23T13:20:57;100657.75;;;21.69;45.56
55187;BME280;55457;52.002;5.464;2024-03-23T13:23:22;100656.88;;;21.63;45.91
55187;BME280;55457;52.002;5.464;2024-03-23T13:28:18;100653.84;;;21.59;45.98
55187;BME280;55457;52.002;5.464;2024-03-23T13:30:53;100651.25;;;21.70;45.88
55187;BME280;55457;52.002;5.464;2024-03-23T13:33:18;100643.19;;;21.80;45.90
55187;BME280;55457;52.002;5.464;2024-03-23T13:35:54;100635.66;;;21.87;46.08
55187;BME280;55457;52.002;5.464;2024-03-23T13:38:20;100626.50;;;21.93;45.78
55187;BME280;55457;52.002;5.464;2024-03-23T13:40:59;100634.72;;;22.03;45.59
55187;BME280;55457;52.002;5.464;2024-03-23T13:43:26;100631.03;;;22.14;43.64
55187;BME280;55457;52.002;5.464;2024-03-23T13:45:54;100634.16;;;22.01;41.72
55187;BME280;55457;52.002;5.464;2024-03-23T13:48:22;100628.88;;;21.84;41.63
55187;BME280;55457;52.002;5.464;2024-03-23T13:50:56;100623.03;;;21.71;41.46